Time;durP1;ratioP1;P1;durP2;ratioP2;P2;SDS_P1;SDS_P2;PMS_P1;PMS_P2;Temp;Humidity;BMP_temperature;BMP_pressure;BME280_temperature;BME280_humidity;BME280_pressure;Samples;Min_cycle;Max_cycle;Signal;HPM_P1;HPM_P2
2021/08/22 00:04:48;;;;;;;;;;;19.00;99.90;;;17.98;90.38;95747.84;10525949;28;2328;-79
2021/08/22 00:09:55;;;;;;;;;;;19.00;99.90;;;18.23;89.58;95750.88;10524695;28;2343;-82
2021/08/22 00:14:58;;;;;;;;;;;19.10;99.90;;;18.34;88.70;95755.66;10509615;28;2260;-82
2021/08/22 00:20:01;;;;;;;;;;;19.20;99.90;;;18.37;87.50;95749.53;10508966;28;2304;-82
2021/08/22 00:25:04;;;;;;;;;;;19.30;99.90;;;18.33;87.77;95748.59;10505139;28;2248;-82
2021/08/22 00:30:06;;;;;;;;;;;19.20;99.90;;;18.31;87.97;95745.41;10525880;28;2205;-82
2021/08/22 00:35:09;;;;;;;;;;;19.20;99.90;;;18.55;86.19;95741.34;10503971;28;2329;-81
2021/08/22 00:40:12;;;;;;;;;;;19.30;99.90;;;18.47;86.00;95744.91;10522518;28;1699;-81
2021/08/22 00:45:15;;;;;;;;;;;19.40;99.90;;;18.51;85.69;95738.50;10515844;28;2199;-79
2021/08/22 00:50:17;;;;;;;;;;;19.30;99.90;;;18.77;84.21;95740.34;10510856;28;1926;-81
2021/08/22 00:55:20;;;;;;;;;;;19.50;99.90;;;18.72;83.87;95737.81;10508229;28;2265;-81
2021/08/22 01:00:23;;;;;;;;;;;19.60;99.90;;;18.72;84.25;95743.25;10518443;28;2421;-82
2021/08/22 01:05:25;;;;;;;;;;;19.60;99.90;;;18.71;83.79;95739.72;10528600;28;2273;-82
2021/08/22 01:10:28;;;;;;;;;;;19.60;99.90;;;18.56;84.01;95732.84;10513364;28;2723;-78
2021/08/22 01:15:33;;;;;;;;;;;19.50;99.90;;;18.47;84.95;95734.81;10522534;28;2358;-81
2021/08/22 01:20:49;;;;;;;;;;;19.40;99.90;;;18.39;84.73;95730.19;10508745;28;2248;-81
2021/08/22 01:26:11;;;;;;;;;;;19.30;99.90;;;18.62;83.76;95717.13;10517273;28;2411;-81
2021/08/22 01:31:14;;;;;;;;;;;19.40;99.90;;;18.64;83.29;95714.91;10525447;28;2342;-81
2021/08/22 01:36:17;;;;;;;;;;;19.50;99.90;;;18.68;82.98;95713.13;10513284;28;2244;-82
2021/08/22 01:41:20;;;;;;;;;;;19.50;99.90;;;19.01;80.92;95717.94;10523750;28;2315;-81
2021/08/22 01:46:23;;;;;;;;;;;19.60;99.90;;;18.86;81.08;95716.59;10521093;28;2362;-81
2021/08/22 01:51:25;;;;;;;;;;;19.70;99.90;;;19.09;79.62;95719.84;10516294;28;2204;-81
2021/08/22 01:56:28;;;;;;;;;;;19.80;99.90;;;19.04;78.95;95741.81;10507014;28;2250;-80
2021/08/22 02:01:31;;;;;;;;;;;19.90;99.90;;;19.09;78.60;95742.44;10518592;28;2422;-81
2021/08/22 02:06:34;;;;;;;;;;;19.90;99.90;;;19.17;77.87;95746.25;10523540;28;2470;-82
2021/08/22 02:11:37;;;;;;;;;;;20.00;99.90;;;19.43;76.01;95760.50;10511685;28;2288;-82
2021/08/22 02:16:39;;;;;;;;;;;20.10;99.90;;;19.38;75.79;95766.16;10525117;28;2283;-82
2021/08/22 02:21:42;;;;;;;;;;;20.20;99.90;;;19.41;75.41;95759.25;10522266;28;2237;-81
2021/08/22 02:26:45;;;;;;;;;;;20.20;99.90;;;19.28;75.36;95761.09;10528656;28;2210;-82
2021/08/22 02:31:47;;;;;;;;;;;20.20;99.90;;;19.20;75.73;95764.66;10523210;28;2272;-79
2021/08/22 02:36:50;;;;;;;;;;;20.20;99.90;;;19.11;75.69;95761.19;10520404;28;2332;-81
2021/08/22 02:41:53;;;;;;;;;;;20.10;99.90;;;19.13;75.44;95770.63;10513400;28;2242;-80
2021/08/22 02:46:56;;;;;;;;;;;20.00;99.90;;;18.99;76.08;95791.03;10508266;28;2276;-80
2021/08/22 02:51:58;;;;;;;;;;;20.00;99.90;;;18.91;76.24;95789.94;10500809;28;2331;-82
2021/08/22 02:57:01;;;;;;;;;;;19.90;99.90;;;18.93;76.31;95787.69;10506214;28;2312;-82
2021/08/22 03:02:04;;;;;;;;;;;19.90;99.90;;;19.06;75.72;95797.56;10506287;28;2336;-82
2021/08/22 03:07:07;;;;;;;;;;;19.90;99.90;;;19.16;75.48;95796.41;10534444;28;2304;-82
2021/08/22 03:12:09;;;;;;;;;;;20.00;99.90;;;19.27;74.83;95803.06;10540949;28;2173;-80
2021/08/22 03:17:12;;;;;;;;;;;20.00;99.90;;;19.38;74.30;95803.50;10530182;28;2296;-81
2021/08/22 03:22:15;;;;;;;;;;;20.10;99.90;;;19.37;74.55;95819.06;10533354;28;2535;-84
2021/08/22 03:27:18;;;;;;;;;;;20.20;99.90;;;19.33;74.78;95837.19;10527145;28;2392;-84
2021/08/22 03:32:20;;;;;;;;;;;20.20;99.90;;;19.31;74.76;95866.72;10531290;28;2286;-83
2021/08/22 03:37:23;;;;;;;;;;;20.10;99.90;;;19.09;75.88;95900.47;10516725;28;2287;-83
2021/08/22 03:42:26;;;;;;;;;;;20.00;99.90;;;18.92;77.58;95924.22;10524888;28;2248;-82
2021/08/22 03:47:28;;;;;;;;;;;19.90;99.90;;;18.92;77.93;95929.66;10532435;28;1965;-82
2021/08/22 03:52:31;;;;;;;;;;;19.80;99.90;;;18.98;77.54;95950.97;10522957;28;2225;-81
2021/08/22 03:57:34;;;;;;;;;;;19.70;99.90;;;18.99;78.95;95954.47;10532215;28;2157;-82
2021/08/22 04:02:37;;;;;;;;;;;19.80;99.90;;;18.64;82.66;95965.38;10495034;28;2321;-82
2021/08/22 04:07:45;;;;;;;;;;;19.70;99.90;;;18.22;88.99;95973.16;10510034;28;2308;-78
2021/08/22 04:12:47;;;;;;;;;;;19.40;99.90;;;17.58;99.00;95978.22;10477471;28;2318;-80
2021/08/22 04:17:51;;;;;;;;;;;19.00;99.90;;;17.23;100.00;95961.72;10483143;28;2185;-80
2021/08/22 04:22:53;;;;;;;;;;;18.50;99.90;;;16.93;100.00;95965.22;10479894;28;2266;-81
2021/08/22 04:27:57;;;;;;;;;;;18.20;99.90;;;16.77;100.00;95966.69;10487563;28;2338;-81
2021/08/22 04:33:00;;;;;;;;;;;17.90;99.90;;;16.68;100.00;95956.56;10502092;28;2355;-80
2021/08/22 04:38:02;;;;;;;;;;;17.70;99.90;;;16.57;100.00;95971.47;10502646;28;2291;-80
2021/08/22 04:43:05;;;;;;;;;;;17.60;99.90;;;16.55;100.00;95975.59;10500493;28;2437;-81
2021/08/22 04:48:08;;;;;;;;;;;17.50;99.90;;;16.51;100.00;95969.97;10492849;28;2223;-80
2021/08/22 04:53:11;;;;;;;;;;;17.50;99.90;;;16.55;100.00;95960.13;10506362;28;2262;-79
2021/08/22 04:58:13;;;;;;;;;;;17.40;99.90;;;16.53;100.00;95956.88;10515101;28;2206;-79
2021/08/22 05:03:16;;;;;;;;;;;17.40;99.90;;;16.48;100.00;95938.03;10492426;28;2340;-79
2021/08/22 05:08:21;;;;;;;;;;;17.40;99.90;;;16.51;100.00;95934.69;10514608;28;2303;-79
2021/08/22 05:13:24;;;;;;;;;;;17.40;99.90;;;16.53;100.00;95923.53;10512213;28;2167;-79
2021/08/22 05:18:26;;;;;;;;;;;17.40;99.90;;;16.57;100.00;95922.63;10503567;28;2166;-81
2021/08/22 05:23:29;;;;;;;;;;;17.40;99.90;;;16.65;100.00;95908.28;10490002;28;2325;-81
2021/08/22 05:28:32;;;;;;;;;;;17.50;99.90;;;16.79;100.00;95893.88;10493855;28;2135;-79
2021/08/22 05:33:34;;;;;;;;;;;17.60;99.90;;;16.85;100.00;95887.22;10517544;28;2272;-80
2021/08/22 05:38:37;;;;;;;;;;;17.60;99.90;;;16.93;100.00;95890.00;10486902;28;2326;-80
2021/08/22 05:43:40;;;;;;;;;;;17.70;99.90;;;16.97;100.00;95892.88;10505964;28;2281;-81
2021/08/22 05:48:42;;;;;;;;;;;17.80;99.90;;;16.95;100.00;95879.63;10501076;28;2301;-80
2021/08/22 05:53:45;;;;;;;;;;;17.80;99.90;;;16.93;100.00;95881.06;10494815;28;2350;-79
2021/08/22 05:58:48;;;;;;;;;;;17.80;99.90;;;16.95;100.00;95879.63;10529512;28;2243;-82
2021/08/22 06:03:51;;;;;;;;;;;17.80;99.90;;;16.98;100.00;95872.75;10495553;28;2324;-79
2021/08/22 06:08:54;;;;;;;;;;;17.80;99.90;;;17.01;100.00;95877.56;10506030;28;2278;-79
2021/08/22 06:13:57;;;;;;;;;;;17.80;99.90;;;17.01;100.00;95872.16;10487144;28;2257;-80
2021/08/22 06:18:59;;;;;;;;;;;17.90;99.90;;;17.35;100.00;95889.69;10501289;28;2296;-80
2021/08/22 06:24:02;;;;;;;;;;;18.00;99.90;;;17.39;100.00;95902.34;10486845;28;2540;-80
2021/08/22 06:29:05;;;;;;;;;;;18.20;99.90;;;17.62;100.00;95886.75;10479567;28;2453;-80
2021/08/22 06:34:09;;;;;;;;;;;18.30;99.90;;;18.13;100.00;95888.00;10501514;28;2370;-81
2021/08/22 06:39:12;;;;;;;;;;;18.60;99.90;;;18.30;100.00;95895.38;10494304;28;2696;-80
2021/08/22 06:44:15;;;;;;;;;;;18.90;99.90;;;18.60;97.96;95888.19;10484854;28;2178;-79
2021/08/22 06:49:18;;;;;;;;;;;19.10;99.90;;;18.78;95.91;95891.72;10494565;28;2320;-79
2021/08/22 06:54:21;;;;;;;;;;;19.20;99.90;;;18.97;92.97;95891.38;10491115;28;2419;-80
2021/08/22 06:59:23;;;;;;;;;;;19.40;99.90;;;18.87;93.53;95887.84;10476715;28;2409;-79
2021/08/22 07:04:26;;;;;;;;;;;19.50;99.90;;;19.13;91.41;95906.03;10475359;28;2789;-79
2021/08/22 07:09:29;;;;;;;;;;;19.60;99.90;;;19.19;91.79;95893.84;10498646;28;2772;-78
2021/08/22 07:14:31;;;;;;;;;;;19.80;99.90;;;19.16;90.98;95889.88;10497066;28;2526;-78
2021/08/22 07:19:36;;;;;;;;;;;19.80;99.90;;;19.26;88.55;95907.78;10519206;28;2393;-80
2021/08/22 07:24:39;;;;;;;;;;;19.90;99.90;;;19.58;90.27;95916.50;10507435;28;2268;-80
2021/08/22 07:29:43;;;;;;;;;;;20.00;99.90;;;19.90;83.95;95904.94;10500529;28;2290;-79
2021/08/22 07:34:46;;;;;;;;;;;20.30;99.90;;;20.36;84.06;95897.75;10487171;28;2469;-79
2021/08/22 07:39:49;;;;;;;;;;;20.70;99.90;;;20.81;79.40;95902.53;10496027;28;2273;-79
2021/08/22 07:44:52;;;;;;;;;;;21.00;99.90;;;20.87;80.38;95898.47;10517395;28;2249;-79
2021/08/22 07:49:55;;;;;;;;;;;21.20;99.90;;;21.20;75.72;95903.13;10500922;28;1938;-82
2021/08/22 07:54:57;;;;;;;;;;;21.40;99.90;;;21.58;74.47;95902.88;10500205;28;2264;-78
2021/08/22 08:00:00;;;;;;;;;;;21.80;99.90;;;22.39;71.69;95898.34;10508653;28;2352;-80
2021/08/22 08:05:03;;;;;;;;;;;22.30;99.90;;;22.85;65.37;95893.44;10494688;28;2390;-80
2021/08/22 08:10:05;;;;;;;;;;;23.00;99.90;;;23.20;64.06;95888.91;10505700;28;2218;-79
2021/08/22 08:15:08;;;;;;;;;;;23.40;99.90;;;23.56;61.75;95889.84;10502248;28;2261;-81
2021/08/22 08:20:11;;;;;;;;;;;23.80;99.90;;;24.08;58.56;95902.47;10495361;28;2270;-82
2021/08/22 08:25:13;;;;;;;;;;;24.10;99.90;;;23.47;61.55;95897.44;10494132;28;2177;-79
2021/08/22 08:30:16;;;;;;;;;;;24.20;99.90;;;23.49;64.47;95894.34;10499367;28;2259;-79
2021/08/22 08:35:19;;;;;;;;;;;24.10;99.90;;;23.40;63.53;95892.56;10506815;28;2408;-79
2021/08/22 08:40:21;;;;;;;;;;;24.00;99.90;;;23.37;63.45;95897.97;10507401;28;2272;-79
2021/08/22 08:45:24;;;;;;;;;;;24.00;99.90;;;23.56;60.70;95911.00;10476727;28;2296;-80
2021/08/22 08:50:27;;;;;;;;;;;24.10;99.90;;;23.28;63.99;95911.03;10504378;28;2311;-79
2021/08/22 08:55:30;;;;;;;;;;;24.10;99.90;;;23.59;62.26;95905.56;10471946;28;2237;-78
2021/08/22 09:00:33;;;;;;;;;;;24.20;99.90;;;23.83;62.75;95904.63;10487278;28;2295;-78
2021/08/22 09:05:36;;;;;;;;;;;24.20;99.90;;;24.17;60.27;95897.56;10478095;28;2423;-79
2021/08/22 09:10:39;;;;;;;;;;;24.50;99.90;;;23.71;59.70;95902.78;10496813;28;2337;-79
2021/08/22 09:15:44;;;;;;;;;;;24.70;99.90;;;24.31;60.35;95899.06;10507163;28;2313;-80
2021/08/22 09:20:47;;;;;;;;;;;24.80;99.90;;;23.68;57.94;95898.00;10506507;28;2339;-80
2021/08/22 09:25:50;;;;;;;;;;;24.80;99.90;;;23.80;58.63;95901.81;10509302;28;2265;-79
2021/08/22 09:30:53;;;;;;;;;;;24.40;99.90;;;24.24;59.43;95919.72;10496060;28;2344;-80
2021/08/22 09:35:56;;;;;;;;;;;24.70;99.90;;;24.01;58.49;95916.03;10485335;28;2320;-80
2021/08/22 09:40:58;;;;;;;;;;;24.70;99.90;;;24.44;55.34;95912.34;10501320;28;2399;-79
2021/08/22 09:46:01;;;;;;;;;;;24.90;99.90;;;24.63;54.93;95910.78;10497144;28;2391;-80
2021/08/22 09:51:04;;;;;;;;;;;25.00;99.90;;;25.02;54.93;95908.81;10500048;28;2390;-80
2021/08/22 09:56:06;;;;;;;;;;;25.00;99.90;;;24.17;56.18;95905.81;10487974;28;2728;-80
2021/08/22 10:01:09;;;;;;;;;;;25.00;99.90;;;24.77;55.36;95903.63;10502100;28;2315;-79
2021/08/22 10:06:12;;;;;;;;;;;25.00;99.90;;;24.60;54.25;95889.50;10476017;28;2359;-79
2021/08/22 10:11:15;;;;;;;;;;;25.10;99.90;;;25.09;53.39;95886.97;10483923;28;2201;-78
2021/08/22 10:16:18;;;;;;;;;;;25.40;99.90;;;24.86;53.65;95895.13;10487080;28;2252;-79
2021/08/22 10:21:20;;;;;;;;;;;25.50;99.90;;;25.45;51.31;95887.59;10497306;28;2310;-79
2021/08/22 10:26:23;;;;;;;;;;;25.80;99.90;;;25.22;51.14;95874.66;10514058;28;2359;-79
2021/08/22 10:31:26;;;;;;;;;;;26.00;99.90;;;26.30;49.54;95885.44;10497201;28;2252;-79
2021/08/22 10:36:29;;;;;;;;;;;26.40;99.90;;;26.25;49.53;95881.06;10481827;28;2434;-79
2021/08/22 10:41:32;;;;;;;;;;;26.70;99.90;;;26.38;49.22;95879.66;10474502;28;2300;-78
2021/08/22 10:46:35;;;;;;;;;;;26.80;99.90;;;27.17;46.73;95875.16;10494508;28;2325;-78
2021/08/22 10:51:37;;;;;;;;;;;27.20;99.90;;;27.11;45.56;95858.16;10495978;28;2211;-79
2021/08/22 10:56:40;;;;;;;;;;;27.50;99.90;;;26.87;49.68;95855.88;10489303;28;2311;-79
2021/08/22 11:01:43;;;;;;;;;;;27.40;99.90;;;26.71;47.84;95856.06;10498220;28;2410;-80
2021/08/22 11:06:46;;;;;;;;;;;27.20;99.90;;;26.61;48.73;95854.00;10504962;28;2471;-78
2021/08/22 11:11:49;;;;;;;;;;;27.00;99.90;;;26.49;49.71;95848.72;10498969;28;2287;-79
2021/08/22 11:16:52;;;;;;;;;;;26.90;99.90;;;26.13;49.23;95853.72;10501748;28;2218;-82
2021/08/22 11:21:54;;;;;;;;;;;26.70;99.90;;;25.60;50.18;95850.94;10504207;28;2343;-81
2021/08/22 11:26:57;;;;;;;;;;;26.20;99.90;;;26.33;47.92;95849.66;10487463;28;2324;-81
2021/08/22 11:31:59;;;;;;;;;;;26.50;99.90;;;26.62;47.24;95841.81;10485917;28;2496;-81
2021/08/22 11:37:02;;;;;;;;;;;26.60;99.90;;;26.00;48.49;95839.38;10490507;28;2416;-78
2021/08/22 11:42:05;;;;;;;;;;;26.60;99.90;;;25.19;50.29;95831.34;10516493;28;2271;-81
2021/08/22 11:47:08;;;;;;;;;;;26.10;99.90;;;25.18;50.97;95828.97;10516957;28;2245;-80
2021/08/22 11:52:10;;;;;;;;;;;25.90;99.90;;;25.14;50.52;95831.69;10506493;28;2241;-80
2021/08/22 11:57:13;;;;;;;;;;;25.80;99.90;;;24.34;52.37;95824.19;10516490;28;2303;-80
2021/08/22 12:02:16;;;;;;;;;;;25.30;99.90;;;23.60;54.36;95830.38;10513672;28;2420;-79
2021/08/22 12:07:19;;;;;;;;;;;24.80;99.90;;;24.38;52.66;95817.63;10494624;28;2269;-80
2021/08/22 12:12:21;;;;;;;;;;;24.70;99.90;;;25.55;50.79;95826.47;10526025;28;2263;-80
2021/08/22 12:17:24;;;;;;;;;;;25.40;99.90;;;25.67;49.12;95818.00;10528819;28;2274;-78
2021/08/22 12:22:27;;;;;;;;;;;25.90;99.90;;;25.54;49.93;95809.16;10493090;28;2326;-79
2021/08/22 12:27:34;;;;;;;;;;;26.10;99.90;;;25.23;50.87;95804.72;10512209;28;2367;-79
2021/08/22 12:32:37;;;;;;;;;;;25.90;99.90;;;25.41;50.92;95807.75;10487192;28;2416;-78
2021/08/22 12:37:40;;;;;;;;;;;25.80;99.90;;;25.53;50.61;95802.06;10476480;28;2322;-79
2021/08/22 12:42:43;;;;;;;;;;;25.90;99.90;;;24.86;54.42;95807.16;10481355;28;2357;-79
2021/08/22 12:47:46;;;;;;;;;;;25.70;99.90;;;25.01;52.91;95802.72;10491524;28;2359;-79
2021/08/22 12:52:48;;;;;;;;;;;25.60;99.90;;;25.27;51.98;95789.06;10476372;28;2327;-80
2021/08/22 12:57:52;;;;;;;;;;;25.70;99.90;;;25.85;51.43;95785.25;10484388;28;2507;-79
2021/08/22 13:02:54;;;;;;;;;;;26.10;99.90;;;26.35;47.71;95770.19;10491165;28;2339;-80
2021/08/22 13:07:58;;;;;;;;;;;26.70;99.90;;;26.89;45.62;95763.31;10504380;28;2739;-78
2021/08/22 13:13:01;;;;;;;;;;;27.10;99.90;;;26.70;48.58;95757.19;10473555;28;2461;-80
2021/08/22 13:18:03;;;;;;;;;;;27.20;99.90;;;26.19;48.65;95747.53;10483814;28;2266;-78
2021/08/22 13:23:06;;;;;;;;;;;27.10;99.90;;;24.61;53.04;95748.97;10477771;28;2284;-80
2021/08/22 13:28:09;;;;;;;;;;;26.20;99.90;;;24.12;54.34;95763.31;10479931;28;2365;-80
2021/08/22 13:33:12;;;;;;;;;;;25.50;99.90;;;23.07;58.06;95758.53;10514827;28;2455;-79
2021/08/22 13:38:15;;;;;;;;;;;24.50;99.90;;;22.00;65.08;95772.03;10522978;28;2384;-78
2021/08/22 13:43:18;;;;;;;;;;;23.50;99.90;;;20.84;74.45;95776.19;10502207;28;2462;-79
2021/08/22 13:48:21;;;;;;;;;;;22.50;99.90;;;19.92;83.41;95792.78;10477746;28;2425;-78
2021/08/22 13:53:24;;;;;;;;;;;21.50;99.90;;;19.60;91.11;95799.75;10477840;28;2317;-79
2021/08/22 13:58:26;;;;;;;;;;;20.90;99.90;;;19.20;94.83;95799.28;10486906;28;2315;-78
2021/08/22 14:03:29;;;;;;;;;;;20.40;99.90;;;19.11;94.11;95815.66;10491150;28;2389;-81
2021/08/22 14:08:32;;;;;;;;;;;20.10;99.90;;;17.72;100.00;95804.16;10502220;28;2316;-81
2021/08/22 14:13:35;;;;;;;;;;;19.60;99.90;;;17.34;100.00;95820.97;10510743;28;2404;-81
2021/08/22 14:18:38;;;;;;;;;;;18.50;99.90;;;17.46;100.00;95823.91;10477909;28;2393;-81
2021/08/22 14:23:40;;;;;;;;;;;18.20;99.90;;;17.47;100.00;95846.44;10475859;28;2397;-82
2021/08/22 14:28:43;;;;;;;;;;;18.30;99.90;;;17.99;100.00;95819.34;10498526;28;2408;-82
2021/08/22 14:33:46;;;;;;;;;;;18.40;99.90;;;18.53;100.00;95803.47;10496625;28;2295;-81
2021/08/22 14:38:49;;;;;;;;;;;18.90;99.90;;;19.12;100.00;95806.38;10488024;28;2280;-83
2021/08/22 14:43:51;;;;;;;;;;;19.40;99.90;;;19.20;100.00;95788.38;10496983;28;2336;-82
2021/08/22 14:48:54;;;;;;;;;;;19.80;99.90;;;19.36;100.00;95779.31;10502982;28;2308;-80
2021/08/22 14:53:57;;;;;;;;;;;19.90;99.90;;;19.31;100.00;95787.69;10506687;28;2122;-81
2021/08/22 14:58:59;;;;;;;;;;;19.90;99.90;;;19.37;100.00;95791.03;10482659;28;2349;-83
2021/08/22 15:04:02;;;;;;;;;;;19.90;99.90;;;19.78;96.78;95800.41;10495686;28;2419;-82
2021/08/22 15:09:05;;;;;;;;;;;20.10;99.90;;;19.85;95.25;95800.69;10500534;28;2271;-80
2021/08/22 15:14:07;;;;;;;;;;;20.40;99.90;;;19.51;94.60;95793.50;10506615;28;2397;-83
2021/08/22 15:19:10;;;;;;;;;;;20.20;99.90;;;19.28;97.25;95790.28;10483381;28;2277;-82
2021/08/22 15:24:13;;;;;;;;;;;20.10;99.90;;;18.86;97.67;95787.41;10499744;28;2248;-80
2021/08/22 15:29:16;;;;;;;;;;;19.80;99.90;;;18.63;99.68;95778.63;10487282;28;2274;-81
2021/08/22 15:34:19;;;;;;;;;;;19.50;99.90;;;18.83;99.87;95780.69;10524355;28;2476;-80
2021/08/22 15:39:22;;;;;;;;;;;19.50;99.90;;;19.42;100.00;95778.00;10541069;28;1950;-81
2021/08/22 15:44:25;;;;;;;;;;;19.70;99.90;;;20.33;94.32;95783.75;10540890;28;2301;-81
2021/08/22 15:49:27;;;;;;;;;;;20.30;99.90;;;20.46;88.88;95787.34;10538044;28;2300;-83
2021/08/22 15:54:30;;;;;;;;;;;20.80;99.90;;;20.00;91.43;95791.91;10511452;28;2415;-85
2021/08/22 15:59:33;;;;;;;;;;;20.80;99.90;;;19.48;91.29;95813.25;10524772;28;2441;-81
2021/08/22 16:04:35;;;;;;;;;;;20.50;99.90;;;18.82;97.45;95814.47;10499946;28;2319;-79
2021/08/22 16:09:38;;;;;;;;;;;20.00;99.90;;;18.57;96.66;95790.81;10487152;28;2013;-81
2021/08/22 16:14:41;;;;;;;;;;;19.70;99.90;;;18.63;97.74;95816.72;10498336;28;2431;-81
2021/08/22 16:19:44;;;;;;;;;;;19.50;99.90;;;18.24;99.67;95823.19;10510260;28;2366;-80
2021/08/22 16:24:47;;;;;;;;;;;19.30;99.90;;;18.09;100.00;95824.50;10513797;28;2115;-82
2021/08/22 16:29:49;;;;;;;;;;;19.10;99.90;;;17.86;100.00;95831.19;10520925;28;1710;-83
2021/08/22 16:34:52;;;;;;;;;;;18.90;99.90;;;17.47;100.00;95846.44;10519541;28;1690;-82
2021/08/22 16:39:55;;;;;;;;;;;18.60;99.90;;;17.16;100.00;95847.28;10513362;28;1913;-82
2021/08/22 16:44:58;;;;;;;;;;;18.30;99.90;;;16.97;100.00;95852.94;10486367;28;1574;-82
2021/08/22 16:50:00;;;;;;;;;;;17.90;99.90;;;16.91;100.00;95834.38;10505323;28;1472;-83
2021/08/22 16:55:03;;;;;;;;;;;17.90;99.90;;;16.92;100.00;95844.13;10500980;28;1739;-82
2021/08/22 17:00:06;;;;;;;;;;;17.80;99.90;;;16.91;100.00;95845.25;10528593;28;1956;-83
2021/08/22 17:05:09;;;;;;;;;;;17.80;99.90;;;16.82;100.00;95849.84;10532734;28;1628;-83
2021/08/22 17:10:12;;;;;;;;;;;17.70;99.90;;;16.68;100.00;95847.97;10512250;28;1386;-80
2021/08/22 17:15:14;;;;;;;;;;;17.60;99.90;;;16.64;100.00;95843.47;10531824;28;1580;-82
2021/08/22 17:20:17;;;;;;;;;;;17.50;99.90;;;16.57;100.00;95845.84;10509446;28;1948;-82
2021/08/22 17:25:20;;;;;;;;;;;17.40;99.90;;;16.58;100.00;95859.09;10508707;28;1640;-81
2021/08/22 17:30:23;;;;;;;;;;;17.40;99.90;;;16.52;100.00;95860.31;10525282;28;1369;-82
2021/08/22 17:35:25;;;;;;;;;;;17.40;99.90;;;16.45;100.00;95857.25;10527551;28;1481;-81
2021/08/22 17:40:28;;;;;;;;;;;17.30;99.90;;;16.43;100.00;95854.03;10527429;28;1899;-81
2021/08/22 17:45:33;;;;;;;;;;;17.30;99.90;;;16.37;100.00;95869.63;10527341;28;1589;-82
2021/08/22 17:50:36;;;;;;;;;;;17.30;99.90;;;16.40;100.00;95870.94;10516117;28;1365;-81
2021/08/22 17:55:39;;;;;;;;;;;17.30;99.90;;;16.41;100.00;95881.50;10522483;28;2264;-82
2021/08/22 18:00:41;;;;;;;;;;;17.30;99.90;;;16.42;100.00;95887.72;10517830;28;2288;-81
2021/08/22 18:05:44;;;;;;;;;;;17.30;99.90;;;16.39;100.00;95899.16;10491380;28;2398;-82
2021/08/22 18:10:47;;;;;;;;;;;17.30;99.90;;;16.33;100.00;95894.97;10516518;28;2290;-84
2021/08/22 18:15:50;;;;;;;;;;;17.20;99.90;;;16.32;100.00;95902.31;10531535;28;2300;-82
2021/08/22 18:20:52;;;;;;;;;;;17.30;99.90;;;16.32;100.00;95918.59;10526875;28;2268;-83
2021/08/22 18:25:55;;;;;;;;;;;17.20;99.90;;;16.29;100.00;95930.06;10491522;28;2277;-84
2021/08/22 18:30:58;;;;;;;;;;;17.20;99.90;;;16.33;100.00;95943.78;10485143;28;2287;-85
2021/08/22 18:36:01;;;;;;;;;;;17.20;99.90;;;16.32;100.00;95955.75;10522276;28;2176;-82
2021/08/22 18:41:03;;;;;;;;;;;17.20;99.90;;;16.30;100.00;95976.97;10533745;28;1903;-79
2021/08/22 18:46:06;;;;;;;;;;;17.20;99.90;;;16.27;100.00;95977.56;10510369;28;2363;-79
2021/08/22 18:51:09;;;;;;;;;;;17.20;99.90;;;16.17;100.00;95979.41;10508716;28;2294;-81
2021/08/22 18:56:11;;;;;;;;;;;17.10;99.90;;;16.09;100.00;95987.44;10495906;28;2292;-82
2021/08/22 19:01:15;;;;;;;;;;;17.00;99.90;;;16.00;100.00;95987.34;10478026;28;2467;-80
2021/08/22 19:06:19;;;;;;;;;;;17.00;99.90;;;16.02;100.00;95985.13;10491640;28;2332;-79
2021/08/22 19:11:21;;;;;;;;;;;16.90;99.90;;;16.04;100.00;96001.91;10497013;28;2295;-81
2021/08/22 19:16:24;;;;;;;;;;;16.90;99.90;;;16.03;100.00;96018.47;10504288;28;2233;-81
2021/08/22 19:21:27;;;;;;;;;;;16.90;99.90;;;15.82;100.00;96012.66;10485798;28;2448;-80
2021/08/22 19:26:30;;;;;;;;;;;16.90;99.90;;;15.64;100.00;96004.31;10501010;28;2256;-81
2021/08/22 19:31:32;;;;;;;;;;;16.60;99.90;;;15.55;100.00;95999.88;10477236;28;2221;-80
2021/08/22 19:36:35;;;;;;;;;;;16.50;99.90;;;15.47;100.00;96001.38;10497054;28;2252;-79
2021/08/22 19:41:38;;;;;;;;;;;16.40;99.90;;;15.43;100.00;96003.06;10502290;28;2313;-79
2021/08/22 19:46:42;;;;;;;;;;;16.30;99.90;;;15.38;100.00;95989.59;10500328;28;2031;-81
2021/08/22 19:51:45;;;;;;;;;;;16.30;99.90;;;15.36;100.00;95991.81;10503959;28;2345;-80
2021/08/22 19:56:47;;;;;;;;;;;16.30;99.90;;;15.35;100.00;95995.63;10498583;28;2343;-81
2021/08/22 20:01:50;;;;;;;;;;;16.30;99.90;;;15.35;100.00;95990.22;10494910;28;2356;-83
2021/08/22 20:06:53;;;;;;;;;;;16.30;99.90;;;15.28;100.00;96000.63;10497436;28;2277;-83
2021/08/22 20:11:58;;;;;;;;;;;16.20;99.90;;;15.22;100.00;96001.81;10502774;28;2328;-84
2021/08/22 20:17:03;;;;;;;;;;;16.10;99.90;;;15.20;100.00;96012.13;10506274;28;2378;-82
2021/08/22 20:22:06;;;;;;;;;;;16.10;99.90;;;15.28;100.00;96038.53;10500513;28;2289;-83
2021/08/22 20:27:10;;;;;;;;;;;16.10;99.90;;;15.26;100.00;96046.13;10490514;28;2280;-83
2021/08/22 20:32:12;;;;;;;;;;;16.20;99.90;;;15.27;100.00;96058.56;10507968;28;2301;-84
2021/08/22 20:37:15;;;;;;;;;;;16.20;99.90;;;15.18;100.00;96072.00;10522006;28;2677;-80
2021/08/22 20:42:18;;;;;;;;;;;16.20;99.90;;;14.99;100.00;96069.31;10501251;28;2284;-83
2021/08/22 20:47:21;;;;;;;;;;;16.00;99.90;;;14.91;100.00;96083.53;10490959;28;2267;-84
2021/08/22 20:52:26;;;;;;;;;;;15.90;99.90;;;14.74;100.00;96092.13;10493128;28;2299;-84
2021/08/22 20:57:28;;;;;;;;;;;15.80;99.90;;;14.62;100.00;96086.34;10499637;28;2303;-81
2021/08/22 21:02:31;;;;;;;;;;;15.60;99.90;;;14.60;100.00;96086.66;10513109;28;2339;-84
2021/08/22 21:07:34;;;;;;;;;;;15.60;99.90;;;14.57;100.00;96084.53;10494114;28;2380;-85
2021/08/22 21:12:40;;;;;;;;;;;15.50;99.90;;;14.60;100.00;96088.56;10501279;28;2223;-85
2021/08/22 21:17:43;;;;;;;;;;;15.60;99.90;;;14.65;100.00;96095.81;10497640;28;2299;-83
2021/08/22 21:22:46;;;;;;;;;;;15.60;99.90;;;14.71;100.00;96113.59;10497622;28;2395;-84
2021/08/22 21:27:49;;;;;;;;;;;15.60;99.90;;;14.69;100.00;96113.03;10492371;28;2012;-82
2021/08/22 21:32:52;;;;;;;;;;;15.60;99.90;;;14.71;100.00;96111.69;10501649;28;2253;-83
2021/08/22 21:37:56;;;;;;;;;;;15.60;99.90;;;14.77;100.00;96090.78;10483842;28;2244;-83
2021/08/22 21:42:58;;;;;;;;;;;15.70;99.90;;;14.83;100.00;96108.53;10500992;28;2300;-84
2021/08/22 21:48:01;;;;;;;;;;;15.70;99.90;;;14.78;100.00;96111.31;10503016;28;2185;-83
2021/08/22 21:53:04;;;;;;;;;;;15.70;99.90;;;14.70;100.00;96110.06;10481831;28;2285;-82
2021/08/22 21:58:08;;;;;;;;;;;15.70;99.90;;;14.68;100.00;96116.84;10497230;28;2160;-83
2021/08/22 22:03:10;;;;;;;;;;;15.60;99.90;;;14.70;100.00;96114.69;10477019;28;2280;-83
2021/08/22 22:08:13;;;;;;;;;;;15.60;99.90;;;14.72;100.00;96126.00;10497428;28;2351;-83
2021/08/22 22:13:16;;;;;;;;;;;15.70;99.90;;;14.73;100.00;96124.91;10493821;28;2341;-83
2021/08/22 22:18:19;;;;;;;;;;;15.70;99.90;;;14.66;100.00;96125.28;10480451;28;2250;-83
2021/08/22 22:23:22;;;;;;;;;;;15.70;99.90;;;14.71;100.00;96138.75;10487484;28;2313;-82
2021/08/22 22:28:25;;;;;;;;;;;15.70;99.90;;;14.87;100.00;96139.31;10498644;28;2248;-81
2021/08/22 22:33:30;;;;;;;;;;;15.70;99.90;;;14.94;100.00;96130.84;10489113;28;2203;-84
2021/08/22 22:38:32;;;;;;;;;;;15.90;99.90;;;14.99;100.00;96131.56;10503207;28;1697;-83
2021/08/22 22:43:37;;;;;;;;;;;15.90;99.90;;;14.88;100.00;96127.41;10488068;28;2263;-84
2021/08/22 22:48:40;;;;;;;;;;;15.90;99.90;;;14.81;100.00;96130.47;10511111;28;1611;-84
2021/08/22 22:53:43;;;;;;;;;;;15.90;99.90;;;14.76;100.00;96129.72;10500392;28;2254;-84
2021/08/22 22:58:46;;;;;;;;;;;15.80;99.90;;;14.81;100.00;96122.34;10484276;28;2357;-82
2021/08/22 23:03:52;;;;;;;;;;;15.80;99.90;;;14.90;100.00;96124.41;10488197;28;2285;-83
2021/08/22 23:08:55;;;;;;;;;;;15.80;99.90;;;14.94;100.00;96125.44;10492708;28;1632;-83